Nearby METAR Reports

 

LFRV - Vannes-Meucon, FRANCE
Distance from station: NE 28km
Mise à jour: 22/01/2018 20:30
Peu nuageux
Peu nuageux
 Wind from SO
Vent: SO 7 km/h
Température: 7°C
Wind Chill: 6°C
Point de rosée: 6°C
Humidité: 93%
Baromètre: 1024 hPa
Clouds: Peu nuageux
Visibility: 10 km
Cloud details: Peu nuageux 792 m
2018/01/22 19:30 LFRV 221930Z AUTO 22004KT 9999 FEW026 07/06 Q1024
LFRZ - Saint - Nazaire / Montoir, FRANCE
Distance from station: SE 64km
Mise à jour: 22/01/2018 20:30
clair
clair
 Wind from OSO
Vent: OSO 9 km/h
Température: 8°C
Wind Chill: 6°C
Point de rosée: 7°C
Humidité: 93%
Baromètre: 1025 hPa
Résumé: clair
Visibility: supérieur à 10 km
2018/01/22 19:30 LFRZ 221930Z AUTO 25005KT CAVOK 08/07 Q1025 NOSIG
 
LFRH - Lorient / Lann- Bihoué, FRANCE
Distance from station: NO 81km
Mise à jour: 22/01/2018 20:30
nuageux
nuageux
 Wind from O
Vent: O 6 km/h
Température: 8°C
Point de rosée: 7°C
Humidité: 93%
Baromètre: 1024 hPa
Clouds: nuageux
Visibility: 7 km
Cloud details: nuageux 427 m
2018/01/22 19:30 LFRH 221930Z AUTO 28003KT 7000 BKN014 08/07 Q1024 BECMG 22010KT BKN015
LFRB - Brest - Guipavas, FRANCE
Distance from station: NO 200km
Mise à jour: 22/01/2018 20:30
Peu nuageux
Peu nuageux
 Wind from SO
Vent: SO 9 km/h
Température: 9°C
Wind Chill: 7°C
Point de rosée: 8°C
Humidité: 94%
Baromètre: 1023 hPa
Clouds: Peu nuageux
Visibility: 10 km
Cloud details: Peu nuageux 823 m
2018/01/22 19:30 LFRB 221930Z AUTO 23005KT 9999 FEW027 09/08 Q1023 BECMG BKN012
 
LFPV - Villacoublay - Vélizy/, FRANCE
Distance from station: NE 450km
Mise à jour: 22/01/2018 20:30
couvert
couvert
 Wind from O
Vent: O 11 km/h
Température: 8°C
Wind Chill: 6°C
Point de rosée: 5°C
Humidité: 82%
Baromètre: 1021 hPa
Clouds: couvert
Visibility: 10 km
Cloud details: couvert 823 m
2018/01/22 19:30 LFPV 221930Z AUTO 27006KT 9999 OVC027 08/05 Q1021 NOSIG
LFRS - Nantes Atlantique, FRANCE
Distance from station: SE 106km
Mise à jour: 22/01/2018 20:30
clair
clair
 Wind from O
Vent: O 7 km/h
Température: 8°C
Wind Chill: 7°C
Point de rosée: 7°C
Humidité: 93%
Baromètre: 1025 hPa
Résumé: clair
Visibility: supérieur à 10 km
2018/01/22 19:30 LFRS 221930Z AUTO 26004KT CAVOK 08/07 Q1025 NOSIG